sensor_id;sensor_type;location;lat;lon;timestamp;pressure;altitude;pressure_sealevel;temperature;humidity
27014;BME280;14556;52.222;4.510;2022-12-07T00:01:30;101754.41;;;3.68;100.00
27014;BME280;14556;52.222;4.510;2022-12-07T00:03:59;101748.97;;;3.70;100.00
27014;BME280;14556;52.222;4.510;2022-12-07T00:06:34;101750.53;;;3.72;100.00
27014;BME280;14556;52.222;4.510;2022-12-07T00:09:01;101752.66;;;3.79;100.00
27014;BME280;14556;52.222;4.510;2022-12-07T00:11:27;101739.28;;;3.80;100.00
27014;BME280;14556;52.222;4.510;2022-12-07T00:13:58;101740.13;;;3.81;100.00
27014;BME280;14556;52.222;4.510;2022-12-07T00:16:27;101742.78;;;3.81;100.00
27014;BME280;14556;52.222;4.510;2022-12-07T00:18:55;101724.09;;;3.72;100.00
27014;BME280;14556;52.222;4.510;2022-12-07T00:21:24;101737.47;;;3.81;100.00
27014;BME280;14556;52.222;4.510;2022-12-07T00:23:52;101736.50;;;3.82;100.00
27014;BME280;14556;52.222;4.510;2022-12-07T00:26:24;101736.50;;;3.82;100.00
27014;BME280;14556;52.222;4.510;2022-12-07T00:28:52;101734.56;;;3.84;100.00
27014;BME280;14556;52.222;4.510;2022-12-07T00:31:21;101734.44;;;3.85;100.00
27014;BME280;14556;52.222;4.510;2022-12-07T00:33:49;101739.50;;;3.89;100.00
27014;BME280;14556;52.222;4.510;2022-12-07T00:36:19;101739.09;;;3.93;100.00
27014;BME280;14556;52.222;4.510;2022-12-07T00:38:52;101732.56;;;3.97;100.00
27014;BME280;14556;52.222;4.510;2022-12-07T00:41:20;101728.78;;;4.00;100.00
27014;BME280;14556;52.222;4.510;2022-12-07T00:43:49;101738.53;;;3.99;100.00
27014;BME280;14556;52.222;4.510;2022-12-07T00:46:16;101723.78;;;3.97;100.00
27014;BME280;14556;52.222;4.510;2022-12-07T00:48:43;101729.91;;;3.97;100.00
27014;BME280;14556;52.222;4.510;2022-12-07T00:51:11;101731.00;;;3.95;100.00
27014;BME280;14556;52.222;4.510;2022-12-07T00:53:39;101731.56;;;3.89;100.00
27014;BME280;14556;52.222;4.510;2022-12-07T00:56:12;101740.31;;;3.89;100.00
27014;BME280;14556;52.222;4.510;2022-12-07T00:58:39;101738.78;;;3.86;100.00
27014;BME280;14556;52.222;4.510;2022-12-07T01:01:07;101746.75;;;3.96;100.00
27014;BME280;14556;52.222;4.510;2022-12-07T01:03:34;101738.69;;;3.98;100.00
27014;BME280;14556;52.222;4.510;2022-12-07T01:06:03;101741.47;;;3.96;100.00
27014;BME280;14556;52.222;4.510;2022-12-07T01:08:30;101730.16;;;3.94;100.00
27014;BME280;14556;52.222;4.510;2022-12-07T01:11:03;101713.41;;;3.84;100.00
27014;BME280;14556;52.222;4.510;2022-12-07T01:13:31;101731.16;;;3.93;100.00
27014;BME280;14556;52.222;4.510;2022-12-07T01:16:00;101734.78;;;3.92;100.00
27014;BME280;14556;52.222;4.510;2022-12-07T01:18:28;101730.00;;;3.86;100.00
27014;BME280;14556;52.222;4.510;2022-12-07T01:21:25;101733.75;;;3.83;100.00
27014;BME280;14556;52.222;4.510;2022-12-07T01:23:52;101732.91;;;3.83;100.00
27014;BME280;14556;52.222;4.510;2022-12-07T01:26:21;101738.19;;;3.83;100.00
27014;BME280;14556;52.222;4.510;2022-12-07T01:28:48;101740.84;;;3.83;100.00
27014;BME280;14556;52.222;4.510;2022-12-07T01:31:17;101730.97;;;3.85;100.00
27014;BME280;14556;52.222;4.510;2022-12-07T01:33:47;101728.50;;;3.93;100.00
27014;BME280;14556;52.222;4.510;2022-12-07T01:38:46;101722.09;;;3.96;100.00
27014;BME280;14556;52.222;4.510;2022-12-07T01:41:13;101719.44;;;3.96;100.00
27014;BME280;14556;52.222;4.510;2022-12-07T01:46:34;101711.59;;;3.84;100.00
27014;BME280;14556;52.222;4.510;2022-12-07T01:49:03;101720.38;;;3.85;100.00
27014;BME280;14556;52.222;4.510;2022-12-07T01:51:31;101724.97;;;3.83;100.00
27014;BME280;14556;52.222;4.510;2022-12-07T01:53:58;101724.38;;;3.79;100.00
27014;BME280;14556;52.222;4.510;2022-12-07T01:56:26;101729.53;;;3.81;100.00
27014;BME280;14556;52.222;4.510;2022-12-07T01:58:54;101729.25;;;3.74;100.00
27014;BME280;14556;52.222;4.510;2022-12-07T02:01:22;101727.22;;;3.66;100.00
27014;BME280;14556;52.222;4.510;2022-12-07T02:03:49;101712.34;;;3.65;100.00
27014;BME280;14556;52.222;4.510;2022-12-07T02:06:20;101713.19;;;3.66;100.00
27014;BME280;14556;52.222;4.510;2022-12-07T02:08:48;101703.56;;;3.65;100.00
27014;BME280;14556;52.222;4.510;2022-12-07T02:11:15;101706.91;;;3.67;100.00
27014;BME280;14556;52.222;4.510;2022-12-07T02:13:44;101707.75;;;3.67;100.00
27014;BME280;14556;52.222;4.510;2022-12-07T02:22:14;101706.91;;;3.67;100.00
27014;BME280;14556;52.222;4.510;2022-12-07T02:24:57;101696.59;;;3.63;100.00
27014;BME280;14556;52.222;4.510;2022-12-07T02:27:42;101700.66;;;3.68;100.00
27014;BME280;14556;52.222;4.510;2022-12-07T02:30:13;101708.19;;;3.72;100.00
27014;BME280;14556;52.222;4.510;2022-12-07T02:35:43;101703.78;;;3.83;100.00
27014;BME280;14556;52.222;4.510;2022-12-07T02:38:24;101692.22;;;3.84;100.00
27014;BME280;14556;52.222;4.510;2022-12-07T02:41:06;101692.78;;;3.87;100.00
27014;BME280;14556;52.222;4.510;2022-12-07T02:43:37;101696.56;;;3.85;100.00
27014;BME280;14556;52.222;4.510;2022-12-07T02:46:09;101688.63;;;3.85;100.00
27014;BME280;14556;52.222;4.510;2022-12-07T02:48:38;101682.88;;;3.80;100.00
27014;BME280;14556;52.222;4.510;2022-12-07T02:51:05;101683.72;;;3.80;100.00
27014;BME280;14556;52.222;4.510;2022-12-07T02:53:39;101684.56;;;3.81;100.00
27014;BME280;14556;52.222;4.510;2022-12-07T03:02:17;101699.09;;;3.96;100.00
27014;BME280;14556;52.222;4.510;2022-12-07T03:16:27;101686.84;;;3.95;100.00
27014;BME280;14556;52.222;4.510;2022-12-07T03:19:05;101685.88;;;3.96;100.00
27014;BME280;14556;52.222;4.510;2022-12-07T03:21:38;101684.19;;;3.95;100.00
27014;BME280;14556;52.222;4.510;2022-12-07T03:24:11;101685.72;;;3.98;100.00
27014;BME280;14556;52.222;4.510;2022-12-07T03:26:44;101680.44;;;3.98;100.00
27014;BME280;14556;52.222;4.510;2022-12-07T03:29:22;101682.13;;;3.99;100.00
27014;BME280;14556;52.222;4.510;2022-12-07T03:31:55;101681.13;;;4.00;100.00
27014;BME280;14556;52.222;4.510;2022-12-07T03:34:40;101671.09;;;3.94;100.00
27014;BME280;14556;52.222;4.510;2022-12-07T03:37:18;101676.97;;;3.97;100.00
27014;BME280;14556;52.222;4.510;2022-12-07T03:40:02;101674.19;;;3.99;100.00
27014;BME280;14556;52.222;4.510;2022-12-07T03:42:31;101668.03;;;3.98;100.00
27014;BME280;14556;52.222;4.510;2022-12-07T03:45:00;101665.41;;;3.98;100.00
27014;BME280;14556;52.222;4.510;2022-12-07T03:47:48;101669.47;;;4.03;100.00
27014;BME280;14556;52.222;4.510;2022-12-07T03:50:28;101669.47;;;4.03;100.00
27014;BME280;14556;52.222;4.510;2022-12-07T03:53:09;101653.69;;;4.01;100.00
27014;BME280;14556;52.222;4.510;2022-12-07T03:55:39;101650.66;;;4.06;100.00
27014;BME280;14556;52.222;4.510;2022-12-07T03:58:15;101648.00;;;4.06;100.00
27014;BME280;14556;52.222;4.510;2022-12-07T04:00:44;101651.22;;;4.09;100.00
27014;BME280;14556;52.222;4.510;2022-12-07T04:03:11;101650.22;;;4.10;100.00
27014;BME280;14556;52.222;4.510;2022-12-07T04:05:38;101658.03;;;4.12;100.00
27014;BME280;14556;52.222;4.510;2022-12-07T04:08:05;101671.84;;;4.16;100.00
27014;BME280;14556;52.222;4.510;2022-12-07T04:10:31;101667.69;;;4.13;100.00
27014;BME280;14556;52.222;4.510;2022-12-07T04:12:58;101661.63;;;4.01;100.00
27014;BME280;14556;52.222;4.510;2022-12-07T04:15:24;101670.13;;;3.95;100.00
27014;BME280;14556;52.222;4.510;2022-12-07T04:17:51;101659.94;;;3.90;100.00
27014;BME280;14556;52.222;4.510;2022-12-07T04:20:18;101660.91;;;3.89;100.00
27014;BME280;14556;52.222;4.510;2022-12-07T04:22:44;101659.50;;;3.85;100.00
27014;BME280;14556;52.222;4.510;2022-12-07T04:25:11;101650.84;;;3.83;100.00
27014;BME280;14556;52.222;4.510;2022-12-07T04:27:37;101651.94;;;3.80;100.00
27014;BME280;14556;52.222;4.510;2022-12-07T04:30:04;101659.06;;;3.80;100.00
27014;BME280;14556;52.222;4.510;2022-12-07T04:32:31;101654.03;;;3.77;100.00
27014;BME280;14556;52.222;4.510;2022-12-07T04:34:57;101649.72;;;3.75;100.00
27014;BME280;14556;52.222;4.510;2022-12-07T04:37:24;101655.13;;;3.74;100.00
27014;BME280;14556;52.222;4.510;2022-12-07T04:39:50;101652.34;;;3.75;100.00
27014;BME280;14556;52.222;4.510;2022-12-07T04:42:17;101658.63;;;3.74;100.00
27014;BME280;14556;52.222;4.510;2022-12-07T04:44:43;101648.03;;;3.74;100.00
27014;BME280;14556;52.222;4.510;2022-12-07T04:47:10;101643.72;;;3.73;100.00
27014;BME280;14556;52.222;4.510;2022-12-07T04:49:37;101644.81;;;3.71;100.00
27014;BME280;14556;52.222;4.510;2022-12-07T04:52:04;101640.47;;;3.70;100.00
27014;BME280;14556;52.222;4.510;2022-12-07T04:54:30;101633.94;;;3.64;100.00
27014;BME280;14556;52.222;4.510;2022-12-07T04:56:57;101640.19;;;3.63;100.00
27014;BME280;14556;52.222;4.510;2022-12-07T04:59:23;101638.66;;;3.60;100.00
27014;BME280;14556;52.222;4.510;2022-12-07T05:01:51;101643.22;;;3.58;100.00
27014;BME280;14556;52.222;4.510;2022-12-07T05:04:17;101638.06;;;3.57;100.00
27014;BME280;14556;52.222;4.510;2022-12-07T05:06:44;101634.72;;;3.55;100.00
27014;BME280;14556;52.222;4.510;2022-12-07T05:09:10;101637.94;;;3.58;100.00
27014;BME280;14556;52.222;4.510;2022-12-07T05:11:37;101633.94;;;3.64;100.00
27014;BME280;14556;52.222;4.510;2022-12-07T05:14:18;101632.53;;;3.70;100.00
27014;BME280;14556;52.222;4.510;2022-12-07T05:16:48;101630.63;;;3.82;100.00
27014;BME280;14556;52.222;4.510;2022-12-07T05:19:15;101626.75;;;3.86;100.00
27014;BME280;14556;52.222;4.510;2022-12-07T05:21:42;101633.03;;;3.85;100.00
27014;BME280;14556;52.222;4.510;2022-12-07T05:24:11;101637.34;;;3.86;100.00
27014;BME280;14556;52.222;4.510;2022-12-07T05:26:38;101636.78;;;3.82;100.00
27014;BME280;14556;52.222;4.510;2022-12-07T05:29:05;101632.84;;;3.77;100.00
27014;BME280;14556;52.222;4.510;2022-12-07T05:31:32;101640.91;;;3.75;100.00
27014;BME280;14556;52.222;4.510;2022-12-07T05:33:58;101643.72;;;3.73;100.00
27014;BME280;14556;52.222;4.510;2022-12-07T05:36:25;101614.97;;;3.59;100.00
27014;BME280;14556;52.222;4.510;2022-12-07T05:38:51;101637.84;;;3.70;100.00
27014;BME280;14556;52.222;4.510;2022-12-07T05:41:18;101635.31;;;3.68;100.00
27014;BME280;14556;52.222;4.510;2022-12-07T05:44:04;101637.84;;;3.70;100.00
27014;BME280;14556;52.222;4.510;2022-12-07T05:46:31;101627.25;;;3.70;100.00
27014;BME280;14556;52.222;4.510;2022-12-07T05:48:57;101622.38;;;3.65;100.00
27014;BME280;14556;52.222;4.510;2022-12-07T05:51:24;101619.72;;;3.65;100.00
27014;BME280;14556;52.222;4.510;2022-12-07T05:53:50;101619.00;;;3.63;100.00
27014;BME280;14556;52.222;4.510;2022-12-07T05:56:16;101620.00;;;3.62;100.00
27014;BME280;14556;52.222;4.510;2022-12-07T05:58:43;101620.94;;;3.61;100.00
27014;BME280;14556;52.222;4.510;2022-12-07T06:01:28;101618.31;;;3.61;100.00
27014;BME280;14556;52.222;4.510;2022-12-07T06:03:54;101618.44;;;3.59;100.00
27014;BME280;14556;52.222;4.510;2022-12-07T06:06:21;101623.03;;;3.57;100.00
27014;BME280;14556;52.222;4.510;2022-12-07T06:08:47;101620.38;;;3.57;100.00
27014;BME280;14556;52.222;4.510;2022-12-07T06:11:14;101622.22;;;3.57;100.00
27014;BME280;14556;52.222;4.510;2022-12-07T06:13:59;101643.66;;;3.63;100.00
27014;BME280;14556;52.222;4.510;2022-12-07T06:16:25;101628.66;;;3.74;100.00
27014;BME280;14556;52.222;4.510;2022-12-07T06:18:52;101630.38;;;3.85;100.00
27014;BME280;14556;52.222;4.510;2022-12-07T06:21:18;101625.66;;;3.89;100.00
27014;BME280;14556;52.222;4.510;2022-12-07T06:23:45;101628.03;;;3.92;100.00
27014;BME280;14556;52.222;4.510;2022-12-07T06:26:11;101626.91;;;3.94;100.00
27014;BME280;14556;52.222;4.510;2022-12-07T06:28:38;101631.25;;;3.95;100.00
27014;BME280;14556;52.222;4.510;2022-12-07T06:31:04;101620.09;;;3.92;100.00
27014;BME280;14556;52.222;4.510;2022-12-07T06:33:38;101625.97;;;3.95;100.00
27014;BME280;14556;52.222;4.510;2022-12-07T06:36:05;101628.47;;;3.97;100.00
27014;BME280;14556;52.222;4.510;2022-12-07T06:38:31;101629.56;;;3.94;100.00
27014;BME280;14556;52.222;4.510;2022-12-07T06:40:58;101629.13;;;3.89;100.00
27014;BME280;14556;52.222;4.510;2022-12-07T06:43:24;101639.16;;;3.85;100.00
27014;BME280;14556;52.222;4.510;2022-12-07T06:45:51;101630.63;;;3.82;100.00
27014;BME280;14556;52.222;4.510;2022-12-07T06:48:17;101634.69;;;3.76;100.00
27014;BME280;14556;52.222;4.510;2022-12-07T06:50:45;101636.88;;;3.71;100.00
27014;BME280;14556;52.222;4.510;2022-12-07T06:53:19;101626.09;;;3.62;100.00
27014;BME280;14556;52.222;4.510;2022-12-07T06:55:46;101641.16;;;3.62;100.00
27014;BME280;14556;52.222;4.510;2022-12-07T06:58:12;101636.59;;;3.64;100.00
27014;BME280;14556;52.222;4.510;2022-12-07T07:00:38;101631.66;;;3.59;100.00
27014;BME280;14556;52.222;4.510;2022-12-07T07:03:05;101642.13;;;3.61;100.00
27014;BME280;14556;52.222;4.510;2022-12-07T07:05:31;101636.81;;;3.61;100.00
27014;BME280;14556;52.222;4.510;2022-12-07T07:07:58;101638.38;;;3.63;100.00
27014;BME280;14556;52.222;4.510;2022-12-07T07:10:44;101648.97;;;3.63;100.00
27014;BME280;14556;52.222;4.510;2022-12-07T07:13:11;101650.38;;;3.68;100.00
27014;BME280;14556;52.222;4.510;2022-12-07T07:15:37;101661.13;;;3.76;100.00
27014;BME280;14556;52.222;4.510;2022-12-07T07:18:04;101657.09;;;3.82;100.00
27014;BME280;14556;52.222;4.510;2022-12-07T07:20:33;101647.09;;;3.85;100.00
27014;BME280;14556;52.222;4.510;2022-12-07T07:23:00;101641.94;;;3.84;100.00
27014;BME280;14556;52.222;4.510;2022-12-07T07:25:26;101643.88;;;3.82;100.00
27014;BME280;14556;52.222;4.510;2022-12-07T07:27:53;101642.34;;;3.79;100.00
27014;BME280;14556;52.222;4.510;2022-12-07T07:30:20;101638.84;;;3.79;100.00
27014;BME280;14556;52.222;4.510;2022-12-07T07:32:46;101631.91;;;3.78;100.00
27014;BME280;14556;52.222;4.510;2022-12-07T07:35:13;101627.81;;;3.73;100.00
27014;BME280;14556;52.222;4.510;2022-12-07T07:37:40;101641.75;;;3.75;100.00
27014;BME280;14556;52.222;4.510;2022-12-07T07:40:08;101635.06;;;3.71;100.00
27014;BME280;14556;52.222;4.510;2022-12-07T07:42:35;101635.31;;;3.68;100.00
27014;BME280;14556;52.222;4.510;2022-12-07T07:45:02;101641.75;;;3.66;100.00
27014;BME280;14556;52.222;4.510;2022-12-07T07:47:28;101647.41;;;3.61;100.00
27014;BME280;14556;52.222;4.510;2022-12-07T07:49:55;101647.69;;;3.58;100.00
27014;BME280;14556;52.222;4.510;2022-12-07T07:52:21;101654.09;;;3.55;100.00
27014;BME280;14556;52.222;4.510;2022-12-07T07:54:48;101653.53;;;3.61;100.00
27014;BME280;14556;52.222;4.510;2022-12-07T07:57:16;101661.91;;;3.67;100.00
27014;BME280;14556;52.222;4.510;2022-12-07T07:59:42;101656.66;;;3.77;100.00
27014;BME280;14556;52.222;4.510;2022-12-07T08:02:14;101661.84;;;3.78;100.00
27014;BME280;14556;52.222;4.510;2022-12-07T08:04:41;101670.88;;;3.75;100.00
27014;BME280;14556;52.222;4.510;2022-12-07T08:07:08;101667.53;;;3.73;100.00
27014;BME280;14556;52.222;4.510;2022-12-07T08:09:35;101650.75;;;3.63;100.00
27014;BME280;14556;52.222;4.510;2022-12-07T08:12:02;101651.75;;;3.62;100.00
27014;BME280;14556;52.222;4.510;2022-12-07T08:14:28;101645.16;;;3.56;100.00
27014;BME280;14556;52.222;4.510;2022-12-07T08:16:55;101655.63;;;3.58;100.00
27014;BME280;14556;52.222;4.510;2022-12-07T08:19:22;101652.13;;;3.57;100.00
27014;BME280;14556;52.222;4.510;2022-12-07T08:21:48;101649.03;;;3.52;100.00
27014;BME280;14556;52.222;4.510;2022-12-07T08:24:15;101656.28;;;3.50;100.00
27014;BME280;14556;52.222;4.510;2022-12-07T08:26:42;101656.44;;;3.48;100.00
27014;BME280;14556;52.222;4.510;2022-12-07T08:29:09;101616.69;;;3.17;100.00
27014;BME280;14556;52.222;4.510;2022-12-07T08:31:36;101661.63;;;3.38;100.00
27014;BME280;14556;52.222;4.510;2022-12-07T08:34:02;101658.28;;;3.36;100.00
27014;BME280;14556;52.222;4.510;2022-12-07T08:36:29;101665.00;;;3.41;100.00
27014;BME280;14556;52.222;4.510;2022-12-07T08:38:55;101654.28;;;3.42;100.00
27014;BME280;14556;52.222;4.510;2022-12-07T08:41:42;101685.97;;;3.54;100.00
27014;BME280;14556;52.222;4.510;2022-12-07T08:44:08;101673.25;;;3.47;100.00
27014;BME280;14556;52.222;4.510;2022-12-07T08:46:42;101666.56;;;3.43;100.00
27014;BME280;14556;52.222;4.510;2022-12-07T08:51:41;101658.34;;;3.46;100.00
27014;BME280;14556;52.222;4.510;2022-12-07T08:54:10;101659.50;;;3.54;100.00
27014;BME280;14556;52.222;4.510;2022-12-07T08:56:37;101662.16;;;3.54;100.00
27014;BME280;14556;52.222;4.510;2022-12-07T08:59:05;101655.03;;;3.54;100.00
27014;BME280;14556;52.222;4.510;2022-12-07T09:01:32;101668.72;;;3.59;100.00
27014;BME280;14556;52.222;4.510;2022-12-07T09:03:59;101653.66;;;3.50;100.00
27014;BME280;14556;52.222;4.510;2022-12-07T09:06:26;101665.94;;;3.61;100.00
27014;BME280;14556;52.222;4.510;2022-12-07T09:08:55;101662.78;;;3.67;100.00
27014;BME280;14556;52.222;4.510;2022-12-07T09:11:24;101662.94;;;3.75;100.00
27014;BME280;14556;52.222;4.510;2022-12-07T09:13:54;101667.59;;;3.83;100.00
27014;BME280;14556;52.222;4.510;2022-12-07T09:16:21;101666.72;;;3.83;100.00
27014;BME280;14556;52.222;4.510;2022-12-07T09:18:48;101657.69;;;3.85;100.00
27014;BME280;14556;52.222;4.510;2022-12-07T09:21:14;101657.16;;;3.92;100.00
27014;BME280;14556;52.222;4.510;2022-12-07T09:23:41;101661.47;;;3.93;100.00
27014;BME280;14556;52.222;4.510;2022-12-07T09:26:09;101666.25;;;3.99;100.00
27014;BME280;14556;52.222;4.510;2022-12-07T09:28:37;101660.66;;;4.02;100.00
27014;BME280;14556;52.222;4.510;2022-12-07T09:31:04;101668.06;;;4.08;100.00
27014;BME280;14556;52.222;4.510;2022-12-07T09:33:55;101662.75;;;4.08;100.00
27014;BME280;14556;52.222;4.510;2022-12-07T09:36:23;101663.19;;;4.04;100.00
27014;BME280;14556;52.222;4.510;2022-12-07T09:38:50;101664.41;;;3.99;100.00
27014;BME280;14556;52.222;4.510;2022-12-07T09:41:16;101655.50;;;4.01;100.00
27014;BME280;14556;52.222;4.510;2022-12-07T09:43:43;101653.69;;;4.01;100.00
27014;BME280;14556;52.222;4.510;2022-12-07T09:46:15;101649.38;;;4.00;100.00
27014;BME280;14556;52.222;4.510;2022-12-07T09:48:43;101650.38;;;4.09;100.00
27014;BME280;14556;52.222;4.510;2022-12-07T09:51:21;101652.09;;;4.30;100.00
27014;BME280;14556;52.222;4.510;2022-12-07T09:53:54;101652.97;;;4.60;100.00
27014;BME280;14556;52.222;4.510;2022-12-07T09:56:23;101653.66;;;4.82;100.00
27014;BME280;14556;52.222;4.510;2022-12-07T09:59:00;101645.28;;;4.87;100.00
27014;BME280;14556;52.222;4.510;2022-12-07T10:01:30;101646.38;;;4.94;100.00
27014;BME280;14556;52.222;4.510;2022-12-07T10:04:09;101644.16;;;4.89;100.00
27014;BME280;14556;52.222;4.510;2022-12-07T10:06:36;101638.88;;;4.79;100.00
27014;BME280;14556;52.222;4.510;2022-12-07T10:09:09;101630.66;;;4.72;100.00
27014;BME280;14556;52.222;4.510;2022-12-07T10:12:07;101632.75;;;4.69;100.00
27014;BME280;14556;52.222;4.510;2022-12-07T10:14:40;101637.75;;;4.72;100.00
27014;BME280;14556;52.222;4.510;2022-12-07T10:17:37;101631.47;;;5.51;100.00
27014;BME280;14556;52.222;4.510;2022-12-07T10:20:14;101626.59;;;6.31;100.00
27014;BME280;14556;52.222;4.510;2022-12-07T10:23:04;101620.09;;;6.61;100.00
27014;BME280;14556;52.222;4.510;2022-12-07T10:25:34;101613.28;;;6.85;100.00
27014;BME280;14556;52.222;4.510;2022-12-07T10:28:17;101608.75;;;6.77;100.00
27014;BME280;14556;52.222;4.510;2022-12-07T10:30:57;101599.78;;;6.60;100.00
27014;BME280;14556;52.222;4.510;2022-12-07T10:33:47;101603.97;;;6.45;100.00
27014;BME280;14556;52.222;4.510;2022-12-07T10:36:25;101590.13;;;6.77;100.00
27014;BME280;14556;52.222;4.510;2022-12-07T10:39:17;101583.72;;;7.50;100.00
27014;BME280;14556;52.222;4.510;2022-12-07T10:41:55;101571.63;;;8.32;100.00
27014;BME280;14556;52.222;4.510;2022-12-07T10:44:30;101562.91;;;9.14;100.00
27014;BME280;14556;52.222;4.510;2022-12-07T10:47:05;101551.50;;;9.28;100.00
27014;BME280;14556;52.222;4.510;2022-12-07T10:49:46;101544.47;;;8.62;100.00
27014;BME280;14556;52.222;4.510;2022-12-07T10:52:26;101540.88;;;7.78;100.00
27014;BME280;14556;52.222;4.510;2022-12-07T11:01:08;101552.50;;;6.09;100.00
27014;BME280;14556;52.222;4.510;2022-12-07T11:03:49;101550.50;;;5.93;100.00
27014;BME280;14556;52.222;4.510;2022-12-07T11:06:41;101556.53;;;5.85;100.00
27014;BME280;14556;52.222;4.510;2022-12-07T11:09:49;101554.06;;;6.02;100.00
27014;BME280;14556;52.222;4.510;2022-12-07T11:12:44;101557.38;;;6.14;100.00
27014;BME280;14556;52.222;4.510;2022-12-07T11:15:33;101553.13;;;6.21;100.00
27014;BME280;14556;52.222;4.510;2022-12-07T11:22:00;101536.25;;;6.49;100.00
27014;BME280;14556;52.222;4.510;2022-12-07T11:32:01;101546.78;;;5.57;100.00
27014;BME280;14556;52.222;4.510;2022-12-07T11:34:46;101541.28;;;5.41;100.00
27014;BME280;14556;52.222;4.510;2022-12-07T11:37:21;101534.91;;;5.34;100.00
27014;BME280;14556;52.222;4.510;2022-12-07T11:39:56;101534.66;;;5.27;100.00
27014;BME280;14556;52.222;4.510;2022-12-07T11:42:30;101534.78;;;5.25;100.00
27014;BME280;14556;52.222;4.510;2022-12-07T11:45:12;101549.03;;;5.24;100.00
27014;BME280;14556;52.222;4.510;2022-12-07T11:50:36;101539.69;;;5.20;100.00
27014;BME280;14556;52.222;4.510;2022-12-07T11:55:49;101539.41;;;5.23;100.00
27014;BME280;14556;52.222;4.510;2022-12-07T11:58:40;101526.97;;;5.24;100.00
27014;BME280;14556;52.222;4.510;2022-12-07T12:01:26;101532.00;;;5.27;100.00
27014;BME280;14556;52.222;4.510;2022-12-07T12:04:01;101522.94;;;5.19;100.00
27014;BME280;14556;52.222;4.510;2022-12-07T12:06:30;101519.28;;;5.30;100.00
27014;BME280;14556;52.222;4.510;2022-12-07T12:21:10;101504.97;;;5.41;100.00
27014;BME280;14556;52.222;4.510;2022-12-07T12:23:44;101507.91;;;5.38;100.00
27014;BME280;14556;52.222;4.510;2022-12-07T12:26:20;101516.03;;;5.37;100.00
27014;BME280;14556;52.222;4.510;2022-12-07T12:33:50;101503.59;;;5.37;100.00
27014;BME280;14556;52.222;4.510;2022-12-07T12:46:54;101490.13;;;5.20;100.00
27014;BME280;14556;52.222;4.510;2022-12-07T12:51:50;101483.31;;;5.18;100.00
27014;BME280;14556;52.222;4.510;2022-12-07T12:57:09;101477.16;;;5.17;100.00
27014;BME280;14556;52.222;4.510;2022-12-07T13:21:01;101474.81;;;5.14;100.00
27014;BME280;14556;52.222;4.510;2022-12-07T13:26:12;101481.19;;;4.83;100.00
27014;BME280;14556;52.222;4.510;2022-12-07T13:28:48;101471.38;;;4.66;100.00
27014;BME280;14556;52.222;4.510;2022-12-07T13:31:31;101464.81;;;4.60;100.00
27014;BME280;14556;52.222;4.510;2022-12-07T13:33:59;101455.19;;;4.59;100.00
27014;BME280;14556;52.222;4.510;2022-12-07T13:36:29;101439.28;;;4.59;100.00
27014;BME280;14556;52.222;4.510;2022-12-07T13:41:45;101426.03;;;4.59;100.00
27014;BME280;14556;52.222;4.510;2022-12-07T13:44:16;101420.72;;;4.59;100.00
27014;BME280;14556;52.222;4.510;2022-12-07T13:49:30;101422.97;;;4.64;100.00
27014;BME280;14556;52.222;4.510;2022-12-07T13:52:17;101421.81;;;4.66;100.00
27014;BME280;14556;52.222;4.510;2022-12-07T13:57:12;101416.09;;;4.71;100.00
27014;BME280;14556;52.222;4.510;2022-12-07T13:59:39;101404.41;;;4.64;100.00
27014;BME280;14556;52.222;4.510;2022-12-07T14:04:50;101413.47;;;4.71;100.00
27014;BME280;14556;52.222;4.510;2022-12-07T14:07:25;101408.16;;;4.71;100.00
27014;BME280;14556;52.222;4.510;2022-12-07T14:10:04;101395.31;;;4.66;100.00
27014;BME280;14556;52.222;4.510;2022-12-07T14:12:36;101411.63;;;4.71;100.00
27014;BME280;14556;52.222;4.510;2022-12-07T14:15:03;101402.00;;;4.70;100.00
27014;BME280;14556;52.222;4.510;2022-12-07T14:17:30;101403.66;;;4.71;100.00
27014;BME280;14556;52.222;4.510;2022-12-07T14:19:59;101398.38;;;4.71;100.00
27014;BME280;14556;52.222;4.510;2022-12-07T14:22:35;101395.56;;;4.73;100.00
27014;BME280;14556;52.222;4.510;2022-12-07T14:25:18;101391.13;;;4.74;100.00
27014;BME280;14556;52.222;4.510;2022-12-07T14:27:57;101392.66;;;4.76;100.00
27014;BME280;14556;52.222;4.510;2022-12-07T14:30:32;101390.00;;;4.76;100.00
27014;BME280;14556;52.222;4.510;2022-12-07T14:33:04;101384.81;;;4.75;100.00
27014;BME280;14556;52.222;4.510;2022-12-07T14:35:31;101386.66;;;4.74;100.00
27014;BME280;14556;52.222;4.510;2022-12-07T14:37:58;101368.81;;;4.66;100.00
27014;BME280;14556;52.222;4.510;2022-12-07T14:40:27;101373.97;;;4.68;100.00
27014;BME280;14556;52.222;4.510;2022-12-07T14:43:06;101369.13;;;4.63;100.00
27014;BME280;14556;52.222;4.510;2022-12-07T14:45:35;101348.63;;;4.55;100.00
27014;BME280;14556;52.222;4.510;2022-12-07T14:48:01;101367.00;;;4.67;100.00
27014;BME280;14556;52.222;4.510;2022-12-07T14:50:52;101372.16;;;4.68;100.00
27014;BME280;14556;52.222;4.510;2022-12-07T14:53:50;101375.13;;;4.65;100.00
27014;BME280;14556;52.222;4.510;2022-12-07T14:56:23;101369.97;;;4.64;100.00
27014;BME280;14556;52.222;4.510;2022-12-07T14:58:50;101373.81;;;4.69;100.00
27014;BME280;14556;52.222;4.510;2022-12-07T15:01:16;101371.06;;;4.71;100.00
27014;BME280;14556;52.222;4.510;2022-12-07T15:03:43;101383.00;;;4.75;100.00
27014;BME280;14556;52.222;4.510;2022-12-07T15:06:13;101378.56;;;4.76;100.00
27014;BME280;14556;52.222;4.510;2022-12-07T15:08:40;101378.06;;;4.62;100.00
27014;BME280;14556;52.222;4.510;2022-12-07T15:11:14;101380.59;;;4.54;100.00
27014;BME280;14556;52.222;4.510;2022-12-07T15:13:41;101372.97;;;4.41;100.00
27014;BME280;14556;52.222;4.510;2022-12-07T15:16:26;101381.22;;;4.38;100.00